sensor_id;sensor_type;location;lat;lon;timestamp;P1;durP1;ratioP1;P2;durP2;ratioP2
28335;SDS011;15592;53.656;7.276;2022-09-09T00:00:43;25.52;;;19.30;;
28335;SDS011;15592;53.656;7.276;2022-09-09T00:03:27;26.70;;;20.00;;
28335;SDS011;15592;53.656;7.276;2022-09-09T00:08:24;26.73;;;18.75;;
28335;SDS011;15592;53.656;7.276;2022-09-09T00:11:02;23.25;;;18.05;;
28335;SDS011;15592;53.656;7.276;2022-09-09T00:13:42;23.30;;;17.88;;
28335;SDS011;15592;53.656;7.276;2022-09-09T00:22:00;25.00;;;18.50;;
28335;SDS011;15592;53.656;7.276;2022-09-09T00:24:52;24.48;;;18.33;;
28335;SDS011;15592;53.656;7.276;2022-09-09T00:27:37;24.27;;;18.42;;
28335;SDS011;15592;53.656;7.276;2022-09-09T00:30:23;23.35;;;17.83;;
28335;SDS011;15592;53.656;7.276;2022-09-09T00:32:54;24.00;;;17.70;;
28335;SDS011;15592;53.656;7.276;2022-09-09T00:35:29;23.95;;;18.77;;
28335;SDS011;15592;53.656;7.276;2022-09-09T00:38:05;25.83;;;19.02;;
28335;SDS011;15592;53.656;7.276;2022-09-09T00:48:22;24.88;;;18.85;;
28335;SDS011;15592;53.656;7.276;2022-09-09T00:51:29;25.52;;;19.20;;
28335;SDS011;15592;53.656;7.276;2022-09-09T00:56:57;30.33;;;21.38;;
28335;SDS011;15592;53.656;7.276;2022-09-09T00:59:45;29.55;;;21.90;;
28335;SDS011;15592;53.656;7.276;2022-09-09T01:02:36;32.10;;;22.70;;
28335;SDS011;15592;53.656;7.276;2022-09-09T01:05:29;32.53;;;22.90;;
28335;SDS011;15592;53.656;7.276;2022-09-09T01:08:00;28.38;;;22.10;;
28335;SDS011;15592;53.656;7.276;2022-09-09T01:13:00;31.58;;;23.05;;
28335;SDS011;15592;53.656;7.276;2022-09-09T01:15:33;30.38;;;22.88;;
28335;SDS011;15592;53.656;7.276;2022-09-09T01:18:13;30.42;;;21.88;;
28335;SDS011;15592;53.656;7.276;2022-09-09T01:28:40;29.83;;;21.08;;
28335;SDS011;15592;53.656;7.276;2022-09-09T01:31:09;30.08;;;20.25;;
28335;SDS011;15592;53.656;7.276;2022-09-09T01:33:39;28.35;;;20.65;;
28335;SDS011;15592;53.656;7.276;2022-09-09T01:36:06;28.23;;;20.60;;
28335;SDS011;15592;53.656;7.276;2022-09-09T01:38:45;26.77;;;19.48;;
28335;SDS011;15592;53.656;7.276;2022-09-09T01:41:10;26.95;;;20.17;;
28335;SDS011;15592;53.656;7.276;2022-09-09T01:43:36;26.58;;;19.45;;
28335;SDS011;15592;53.656;7.276;2022-09-09T01:46:02;29.45;;;20.52;;
28335;SDS011;15592;53.656;7.276;2022-09-09T01:48:28;27.85;;;20.48;;
28335;SDS011;15592;53.656;7.276;2022-09-09T01:50:55;27.83;;;20.33;;
28335;SDS011;15592;53.656;7.276;2022-09-09T01:53:21;25.83;;;19.58;;
28335;SDS011;15592;53.656;7.276;2022-09-09T01:55:51;25.13;;;19.45;;
28335;SDS011;15592;53.656;7.276;2022-09-09T02:01:14;27.92;;;19.55;;
28335;SDS011;15592;53.656;7.276;2022-09-09T02:04:02;26.80;;;20.48;;
28335;SDS011;15592;53.656;7.276;2022-09-09T02:06:38;26.63;;;19.20;;
28335;SDS011;15592;53.656;7.276;2022-09-09T02:09:05;30.70;;;19.88;;
28335;SDS011;15592;53.656;7.276;2022-09-09T02:11:36;29.85;;;20.92;;
28335;SDS011;15592;53.656;7.276;2022-09-09T02:14:04;30.00;;;20.77;;
28335;SDS011;15592;53.656;7.276;2022-09-09T02:16:37;26.27;;;20.02;;
28335;SDS011;15592;53.656;7.276;2022-09-09T02:19:17;25.05;;;19.38;;
28335;SDS011;15592;53.656;7.276;2022-09-09T02:21:50;28.20;;;20.20;;
28335;SDS011;15592;53.656;7.276;2022-09-09T02:24:19;28.77;;;20.48;;
28335;SDS011;15592;53.656;7.276;2022-09-09T02:26:46;30.40;;;21.92;;
28335;SDS011;15592;53.656;7.276;2022-09-09T02:29:21;25.85;;;20.45;;
28335;SDS011;15592;53.656;7.276;2022-09-09T02:31:51;27.50;;;19.73;;
28335;SDS011;15592;53.656;7.276;2022-09-09T02:34:20;24.58;;;19.55;;
28335;SDS011;15592;53.656;7.276;2022-09-09T02:36:49;26.33;;;19.73;;
28335;SDS011;15592;53.656;7.276;2022-09-09T02:39:17;24.35;;;17.75;;
28335;SDS011;15592;53.656;7.276;2022-09-09T02:41:43;23.00;;;18.65;;
28335;SDS011;15592;53.656;7.276;2022-09-09T02:44:13;24.13;;;19.00;;
28335;SDS011;15592;53.656;7.276;2022-09-09T02:49:18;26.38;;;19.00;;
28335;SDS011;15592;53.656;7.276;2022-09-09T02:52:05;22.42;;;17.83;;
28335;SDS011;15592;53.656;7.276;2022-09-09T02:54:41;26.95;;;19.30;;
28335;SDS011;15592;53.656;7.276;2022-09-09T02:57:10;21.80;;;17.60;;
28335;SDS011;15592;53.656;7.276;2022-09-09T02:59:43;23.80;;;18.00;;
28335;SDS011;15592;53.656;7.276;2022-09-09T03:02:09;25.85;;;18.67;;
28335;SDS011;15592;53.656;7.276;2022-09-09T03:04:37;25.15;;;18.60;;
28335;SDS011;15592;53.656;7.276;2022-09-09T03:07:03;23.73;;;18.30;;
28335;SDS011;15592;53.656;7.276;2022-09-09T03:09:29;28.08;;;18.83;;
28335;SDS011;15592;53.656;7.276;2022-09-09T03:11:55;24.60;;;18.27;;
28335;SDS011;15592;53.656;7.276;2022-09-09T03:14:21;21.98;;;17.95;;
28335;SDS011;15592;53.656;7.276;2022-09-09T03:16:50;24.67;;;18.27;;
28335;SDS011;15592;53.656;7.276;2022-09-09T03:19:16;23.85;;;19.25;;
28335;SDS011;15592;53.656;7.276;2022-09-09T03:21:43;27.63;;;20.40;;
28335;SDS011;15592;53.656;7.276;2022-09-09T03:24:10;25.92;;;19.50;;
28335;SDS011;15592;53.656;7.276;2022-09-09T03:26:36;25.25;;;19.15;;
28335;SDS011;15592;53.656;7.276;2022-09-09T03:29:03;26.05;;;19.00;;
28335;SDS011;15592;53.656;7.276;2022-09-09T03:31:31;25.38;;;18.65;;
28335;SDS011;15592;53.656;7.276;2022-09-09T03:34:01;24.27;;;18.35;;
28335;SDS011;15592;53.656;7.276;2022-09-09T03:36:27;26.10;;;18.65;;
28335;SDS011;15592;53.656;7.276;2022-09-09T03:38:54;25.48;;;18.67;;
28335;SDS011;15592;53.656;7.276;2022-09-09T03:41:20;26.25;;;18.92;;
28335;SDS011;15592;53.656;7.276;2022-09-09T03:43:49;21.88;;;17.17;;
28335;SDS011;15592;53.656;7.276;2022-09-09T03:46:16;24.77;;;18.42;;
28335;SDS011;15592;53.656;7.276;2022-09-09T03:48:42;23.35;;;18.08;;
28335;SDS011;15592;53.656;7.276;2022-09-09T03:51:07;22.98;;;17.95;;
28335;SDS011;15592;53.656;7.276;2022-09-09T03:53:33;26.55;;;18.60;;
28335;SDS011;15592;53.656;7.276;2022-09-09T03:55:59;23.05;;;18.02;;
28335;SDS011;15592;53.656;7.276;2022-09-09T03:58:25;24.85;;;19.17;;
28335;SDS011;15592;53.656;7.276;2022-09-09T04:00:55;23.63;;;17.52;;
28335;SDS011;15592;53.656;7.276;2022-09-09T04:03:23;25.33;;;19.40;;
28335;SDS011;15592;53.656;7.276;2022-09-09T04:05:52;23.08;;;18.25;;
28335;SDS011;15592;53.656;7.276;2022-09-09T04:08:19;25.23;;;18.27;;
28335;SDS011;15592;53.656;7.276;2022-09-09T04:10:46;24.23;;;18.38;;
28335;SDS011;15592;53.656;7.276;2022-09-09T04:13:15;25.52;;;19.23;;
28335;SDS011;15592;53.656;7.276;2022-09-09T04:15:43;23.10;;;18.10;;
28335;SDS011;15592;53.656;7.276;2022-09-09T04:18:10;24.08;;;18.20;;
28335;SDS011;15592;53.656;7.276;2022-09-09T04:20:36;25.55;;;18.50;;
28335;SDS011;15592;53.656;7.276;2022-09-09T04:23:02;25.65;;;19.15;;
28335;SDS011;15592;53.656;7.276;2022-09-09T04:25:28;23.83;;;17.73;;
28335;SDS011;15592;53.656;7.276;2022-09-09T04:27:57;24.88;;;19.27;;
28335;SDS011;15592;53.656;7.276;2022-09-09T04:30:23;27.30;;;18.85;;
28335;SDS011;15592;53.656;7.276;2022-09-09T04:32:49;26.35;;;20.30;;
28335;SDS011;15592;53.656;7.276;2022-09-09T04:35:16;30.35;;;19.58;;
28335;SDS011;15592;53.656;7.276;2022-09-09T04:37:41;24.52;;;18.90;;
28335;SDS011;15592;53.656;7.276;2022-09-09T04:40:07;23.23;;;17.65;;
28335;SDS011;15592;53.656;7.276;2022-09-09T04:42:38;24.02;;;18.70;;
28335;SDS011;15592;53.656;7.276;2022-09-09T04:45:04;25.77;;;18.90;;
28335;SDS011;15592;53.656;7.276;2022-09-09T04:47:31;25.98;;;18.73;;
28335;SDS011;15592;53.656;7.276;2022-09-09T04:49:57;25.77;;;19.67;;
28335;SDS011;15592;53.656;7.276;2022-09-09T04:52:23;29.10;;;20.20;;
28335;SDS011;15592;53.656;7.276;2022-09-09T04:54:49;26.63;;;19.80;;
28335;SDS011;15592;53.656;7.276;2022-09-09T04:57:14;25.08;;;19.13;;
28335;SDS011;15592;53.656;7.276;2022-09-09T04:59:40;25.23;;;19.10;;
28335;SDS011;15592;53.656;7.276;2022-09-09T05:02:06;25.88;;;18.27;;
28335;SDS011;15592;53.656;7.276;2022-09-09T05:04:31;23.88;;;17.60;;
28335;SDS011;15592;53.656;7.276;2022-09-09T05:06:58;24.38;;;18.30;;
28335;SDS011;15592;53.656;7.276;2022-09-09T05:09:24;25.30;;;18.20;;
28335;SDS011;15592;53.656;7.276;2022-09-09T05:11:49;24.95;;;19.33;;
28335;SDS011;15592;53.656;7.276;2022-09-09T05:14:15;22.90;;;16.98;;
28335;SDS011;15592;53.656;7.276;2022-09-09T05:16:41;23.73;;;18.40;;
28335;SDS011;15592;53.656;7.276;2022-09-09T05:19:09;23.17;;;17.65;;
28335;SDS011;15592;53.656;7.276;2022-09-09T05:21:35;24.42;;;17.85;;
28335;SDS011;15592;53.656;7.276;2022-09-09T05:24:01;26.15;;;18.70;;
28335;SDS011;15592;53.656;7.276;2022-09-09T05:26:26;25.40;;;18.83;;
28335;SDS011;15592;53.656;7.276;2022-09-09T05:28:54;30.30;;;19.75;;
28335;SDS011;15592;53.656;7.276;2022-09-09T05:31:20;27.05;;;18.55;;
28335;SDS011;15592;53.656;7.276;2022-09-09T05:33:46;24.60;;;18.13;;
28335;SDS011;15592;53.656;7.276;2022-09-09T05:36:13;28.75;;;18.75;;
28335;SDS011;15592;53.656;7.276;2022-09-09T05:38:41;27.02;;;19.27;;
28335;SDS011;15592;53.656;7.276;2022-09-09T05:41:08;26.33;;;18.02;;
28335;SDS011;15592;53.656;7.276;2022-09-09T05:43:36;29.00;;;19.45;;
28335;SDS011;15592;53.656;7.276;2022-09-09T05:46:03;27.63;;;19.17;;
28335;SDS011;15592;53.656;7.276;2022-09-09T05:48:39;24.15;;;18.38;;
28335;SDS011;15592;53.656;7.276;2022-09-09T05:51:07;28.05;;;18.95;;
28335;SDS011;15592;53.656;7.276;2022-09-09T05:53:38;24.23;;;17.95;;
28335;SDS011;15592;53.656;7.276;2022-09-09T05:56:05;25.85;;;18.75;;
28335;SDS011;15592;53.656;7.276;2022-09-09T05:58:32;24.67;;;18.33;;
28335;SDS011;15592;53.656;7.276;2022-09-09T06:03:38;26.38;;;18.27;;
28335;SDS011;15592;53.656;7.276;2022-09-09T06:06:06;24.85;;;17.25;;
28335;SDS011;15592;53.656;7.276;2022-09-09T06:08:33;24.10;;;17.42;;
28335;SDS011;15592;53.656;7.276;2022-09-09T06:11:10;26.08;;;17.95;;
28335;SDS011;15592;53.656;7.276;2022-09-09T06:13:37;26.95;;;18.05;;
28335;SDS011;15592;53.656;7.276;2022-09-09T06:16:03;22.58;;;16.13;;
28335;SDS011;15592;53.656;7.276;2022-09-09T06:18:32;23.95;;;17.08;;
28335;SDS011;15592;53.656;7.276;2022-09-09T06:20:58;24.58;;;16.42;;
28335;SDS011;15592;53.656;7.276;2022-09-09T06:23:29;22.95;;;15.90;;
28335;SDS011;15592;53.656;7.276;2022-09-09T06:28:27;21.23;;;14.52;;
28335;SDS011;15592;53.656;7.276;2022-09-09T06:30:59;21.40;;;14.57;;
28335;SDS011;15592;53.656;7.276;2022-09-09T06:33:36;19.75;;;14.35;;
28335;SDS011;15592;53.656;7.276;2022-09-09T06:36:13;18.30;;;14.00;;
28335;SDS011;15592;53.656;7.276;2022-09-09T06:38:40;19.67;;;14.10;;
28335;SDS011;15592;53.656;7.276;2022-09-09T06:41:07;23.38;;;14.10;;
28335;SDS011;15592;53.656;7.276;2022-09-09T06:43:34;17.63;;;13.02;;
28335;SDS011;15592;53.656;7.276;2022-09-09T06:48:28;16.48;;;10.90;;
28335;SDS011;15592;53.656;7.276;2022-09-09T06:53:26;15.32;;;9.90;;
28335;SDS011;15592;53.656;7.276;2022-09-09T06:55:52;12.25;;;9.25;;
28335;SDS011;15592;53.656;7.276;2022-09-09T06:58:18;11.70;;;9.00;;
28335;SDS011;15592;53.656;7.276;2022-09-09T07:00:43;12.23;;;8.13;;
28335;SDS011;15592;53.656;7.276;2022-09-09T07:03:09;10.20;;;6.38;;
28335;SDS011;15592;53.656;7.276;2022-09-09T07:05:35;10.20;;;5.40;;
28335;SDS011;15592;53.656;7.276;2022-09-09T07:08:02;9.23;;;4.72;;
28335;SDS011;15592;53.656;7.276;2022-09-09T07:10:28;10.18;;;5.47;;
28335;SDS011;15592;53.656;7.276;2022-09-09T07:12:53;8.38;;;4.78;;
28335;SDS011;15592;53.656;7.276;2022-09-09T07:15:19;10.40;;;5.82;;
28335;SDS011;15592;53.656;7.276;2022-09-09T07:17:48;12.95;;;8.32;;
28335;SDS011;15592;53.656;7.276;2022-09-09T07:20:14;12.38;;;8.82;;
28335;SDS011;15592;53.656;7.276;2022-09-09T07:22:40;12.00;;;9.10;;
28335;SDS011;15592;53.656;7.276;2022-09-09T07:25:06;12.95;;;9.70;;
28335;SDS011;15592;53.656;7.276;2022-09-09T07:27:32;11.05;;;8.95;;
28335;SDS011;15592;53.656;7.276;2022-09-09T07:29:58;12.55;;;9.77;;
28335;SDS011;15592;53.656;7.276;2022-09-09T07:32:24;16.33;;;10.68;;
28335;SDS011;15592;53.656;7.276;2022-09-09T07:34:50;14.43;;;11.50;;
28335;SDS011;15592;53.656;7.276;2022-09-09T07:37:16;16.63;;;11.73;;
28335;SDS011;15592;53.656;7.276;2022-09-09T07:39:42;15.70;;;10.88;;
28335;SDS011;15592;53.656;7.276;2022-09-09T07:42:08;13.57;;;10.10;;
28335;SDS011;15592;53.656;7.276;2022-09-09T07:47:30;15.18;;;11.13;;
28335;SDS011;15592;53.656;7.276;2022-09-09T07:49:56;15.32;;;10.90;;
28335;SDS011;15592;53.656;7.276;2022-09-09T07:52:21;13.77;;;10.27;;
28335;SDS011;15592;53.656;7.276;2022-09-09T07:54:54;18.35;;;11.05;;
28335;SDS011;15592;53.656;7.276;2022-09-09T07:57:21;14.43;;;10.50;;
28335;SDS011;15592;53.656;7.276;2022-09-09T07:59:50;16.65;;;10.38;;
28335;SDS011;15592;53.656;7.276;2022-09-09T08:02:30;17.20;;;10.63;;
28335;SDS011;15592;53.656;7.276;2022-09-09T08:05:26;19.13;;;10.25;;
28335;SDS011;15592;53.656;7.276;2022-09-09T08:07:59;15.52;;;10.90;;
28335;SDS011;15592;53.656;7.276;2022-09-09T08:10:25;13.95;;;9.68;;
28335;SDS011;15592;53.656;7.276;2022-09-09T08:12:50;13.90;;;8.82;;
28335;SDS011;15592;53.656;7.276;2022-09-09T08:15:17;15.50;;;9.65;;
28335;SDS011;15592;53.656;7.276;2022-09-09T08:17:43;13.20;;;9.55;;
28335;SDS011;15592;53.656;7.276;2022-09-09T08:20:09;12.32;;;9.23;;
28335;SDS011;15592;53.656;7.276;2022-09-09T08:22:36;12.32;;;9.35;;
28335;SDS011;15592;53.656;7.276;2022-09-09T08:25:02;11.95;;;8.98;;
28335;SDS011;15592;53.656;7.276;2022-09-09T08:27:31;12.18;;;8.77;;
28335;SDS011;15592;53.656;7.276;2022-09-09T08:29:57;13.50;;;9.57;;
28335;SDS011;15592;53.656;7.276;2022-09-09T08:32:23;14.48;;;9.65;;
28335;SDS011;15592;53.656;7.276;2022-09-09T08:34:49;12.18;;;8.85;;
28335;SDS011;15592;53.656;7.276;2022-09-09T08:37:16;13.43;;;9.05;;
28335;SDS011;15592;53.656;7.276;2022-09-09T08:39:41;13.85;;;9.10;;
28335;SDS011;15592;53.656;7.276;2022-09-09T08:42:52;15.07;;;8.80;;
28335;SDS011;15592;53.656;7.276;2022-09-09T08:50:26;13.55;;;9.00;;
28335;SDS011;15592;53.656;7.276;2022-09-09T08:53:04;12.20;;;9.00;;
28335;SDS011;15592;53.656;7.276;2022-09-09T08:55:56;14.35;;;9.90;;
28335;SDS011;15592;53.656;7.276;2022-09-09T09:09:11;12.43;;;9.50;;
28335;SDS011;15592;53.656;7.276;2022-09-09T09:12:07;14.95;;;9.95;;
28335;SDS011;15592;53.656;7.276;2022-09-09T09:14:47;14.95;;;9.88;;
28335;SDS011;15592;53.656;7.276;2022-09-09T09:17:14;13.88;;;10.13;;
28335;SDS011;15592;53.656;7.276;2022-09-09T09:19:44;13.35;;;10.52;;
28335;SDS011;15592;53.656;7.276;2022-09-09T09:22:22;15.90;;;11.10;;
28335;SDS011;15592;53.656;7.276;2022-09-09T09:25:13;15.55;;;9.60;;
28335;SDS011;15592;53.656;7.276;2022-09-09T09:30:18;11.93;;;9.98;;
28335;SDS011;15592;53.656;7.276;2022-09-09T09:32:53;12.85;;;10.20;;
28335;SDS011;15592;53.656;7.276;2022-09-09T09:35:22;13.02;;;9.63;;
28335;SDS011;15592;53.656;7.276;2022-09-09T09:37:48;12.25;;;9.88;;
28335;SDS011;15592;53.656;7.276;2022-09-09T09:40:15;14.38;;;10.77;;
28335;SDS011;15592;53.656;7.276;2022-09-09T09:42:51;13.57;;;10.68;;
28335;SDS011;15592;53.656;7.276;2022-09-09T09:47:58;16.10;;;13.15;;
28335;SDS011;15592;53.656;7.276;2022-09-09T09:50:29;15.73;;;12.68;;
28335;SDS011;15592;53.656;7.276;2022-09-09T09:52:57;17.17;;;12.95;;
28335;SDS011;15592;53.656;7.276;2022-09-09T09:57:59;16.40;;;12.20;;
28335;SDS011;15592;53.656;7.276;2022-09-09T10:00:27;13.98;;;10.40;;
28335;SDS011;15592;53.656;7.276;2022-09-09T10:02:53;14.45;;;10.95;;
28335;SDS011;15592;53.656;7.276;2022-09-09T10:05:22;14.20;;;11.55;;
28335;SDS011;15592;53.656;7.276;2022-09-09T10:08:00;13.98;;;11.43;;
28335;SDS011;15592;53.656;7.276;2022-09-09T10:13:19;14.37;;;12.53;;
28335;SDS011;15592;53.656;7.276;2022-09-09T10:21:50;16.10;;;13.50;;
28335;SDS011;15592;53.656;7.276;2022-09-09T10:24:37;14.52;;;13.05;;
28335;SDS011;15592;53.656;7.276;2022-09-09T10:32:41;14.27;;;12.75;;
28335;SDS011;15592;53.656;7.276;2022-09-09T10:35:25;16.23;;;12.55;;
28335;SDS011;15592;53.656;7.276;2022-09-09T10:40:43;13.10;;;11.05;;
28335;SDS011;15592;53.656;7.276;2022-09-09T10:46:33;12.25;;;9.05;;
28335;SDS011;15592;53.656;7.276;2022-09-09T10:52:05;9.38;;;7.15;;
28335;SDS011;15592;53.656;7.276;2022-09-09T10:57:27;9.68;;;5.95;;
28335;SDS011;15592;53.656;7.276;2022-09-09T10:59:58;9.82;;;5.97;;
28335;SDS011;15592;53.656;7.276;2022-09-09T11:02:31;11.48;;;5.90;;
28335;SDS011;15592;53.656;7.276;2022-09-09T11:05:14;10.65;;;6.03;;
28335;SDS011;15592;53.656;7.276;2022-09-09T11:07:49;7.38;;;5.18;;
28335;SDS011;15592;53.656;7.276;2022-09-09T11:13:17;8.60;;;5.70;;
28335;SDS011;15592;53.656;7.276;2022-09-09T11:15:52;8.13;;;5.80;;
28335;SDS011;15592;53.656;7.276;2022-09-09T11:18:23;9.13;;;6.25;;
28335;SDS011;15592;53.656;7.276;2022-09-09T11:20:53;13.02;;;6.95;;
28335;SDS011;15592;53.656;7.276;2022-09-09T11:23:26;9.57;;;6.38;;
28335;SDS011;15592;53.656;7.276;2022-09-09T11:26:00;7.15;;;6.30;;
28335;SDS011;15592;53.656;7.276;2022-09-09T11:41:48;11.63;;;6.05;;
28335;SDS011;15592;53.656;7.276;2022-09-09T11:44:19;11.27;;;6.38;;
28335;SDS011;15592;53.656;7.276;2022-09-09T11:46:55;9.55;;;6.35;;
28335;SDS011;15592;53.656;7.276;2022-09-09T11:51:55;11.02;;;5.57;;
28335;SDS011;15592;53.656;7.276;2022-09-09T11:54:30;9.23;;;5.68;;
28335;SDS011;15592;53.656;7.276;2022-09-09T11:56:57;12.80;;;5.47;;
28335;SDS011;15592;53.656;7.276;2022-09-09T11:59:28;8.50;;;4.85;;
28335;SDS011;15592;53.656;7.276;2022-09-09T12:04:38;11.15;;;5.30;;
28335;SDS011;15592;53.656;7.276;2022-09-09T12:09:43;12.00;;;5.90;;
28335;SDS011;15592;53.656;7.276;2022-09-09T12:12:32;10.77;;;5.20;;
28335;SDS011;15592;53.656;7.276;2022-09-09T12:17:41;8.63;;;4.40;;
28335;SDS011;15592;53.656;7.276;2022-09-09T12:23:19;9.02;;;4.68;;
28335;SDS011;15592;53.656;7.276;2022-09-09T12:28:47;7.72;;;4.55;;
28335;SDS011;15592;53.656;7.276;2022-09-09T12:33:53;8.55;;;4.50;;
28335;SDS011;15592;53.656;7.276;2022-09-09T12:36:19;8.63;;;4.55;;
28335;SDS011;15592;53.656;7.276;2022-09-09T12:38:52;10.85;;;4.63;;
28335;SDS011;15592;53.656;7.276;2022-09-09T12:41:24;9.00;;;3.97;;
28335;SDS011;15592;53.656;7.276;2022-09-09T12:44:02;5.88;;;4.18;;
28335;SDS011;15592;53.656;7.276;2022-09-09T12:46:35;7.55;;;3.50;;
28335;SDS011;15592;53.656;7.276;2022-09-09T12:49:05;5.93;;;3.53;;
28335;SDS011;15592;53.656;7.276;2022-09-09T12:51:48;10.82;;;3.80;;
28335;SDS011;15592;53.656;7.276;2022-09-09T12:54:14;6.90;;;3.80;;
28335;SDS011;15592;53.656;7.276;2022-09-09T12:56:40;7.25;;;3.67;;
28335;SDS011;15592;53.656;7.276;2022-09-09T12:59:21;6.90;;;3.17;;
28335;SDS011;15592;53.656;7.276;2022-09-09T13:01:55;6.70;;;3.35;;
28335;SDS011;15592;53.656;7.276;2022-09-09T13:04:24;4.95;;;3.28;;
28335;SDS011;15592;53.656;7.276;2022-09-09T13:06:49;6.47;;;3.83;;
28335;SDS011;15592;53.656;7.276;2022-09-09T13:09:17;10.50;;;4.05;;
28335;SDS011;15592;53.656;7.276;2022-09-09T13:11:43;11.93;;;3.70;;
28335;SDS011;15592;53.656;7.276;2022-09-09T13:16:55;9.25;;;3.50;;
28335;SDS011;15592;53.656;7.276;2022-09-09T13:19:22;5.95;;;3.35;;
28335;SDS011;15592;53.656;7.276;2022-09-09T13:21:50;7.32;;;3.13;;
28335;SDS011;15592;53.656;7.276;2022-09-09T13:24:34;7.15;;;3.10;;
28335;SDS011;15592;53.656;7.276;2022-09-09T13:27:04;4.22;;;2.92;;
28335;SDS011;15592;53.656;7.276;2022-09-09T13:29:51;6.88;;;3.15;;
28335;SDS011;15592;53.656;7.276;2022-09-09T13:32:21;6.50;;;3.00;;
28335;SDS011;15592;53.656;7.276;2022-09-09T13:34:51;4.47;;;2.88;;
28335;SDS011;15592;53.656;7.276;2022-09-09T13:37:23;5.38;;;2.40;;
28335;SDS011;15592;53.656;7.276;2022-09-09T13:39:54;6.30;;;2.80;;
28335;SDS011;15592;53.656;7.276;2022-09-09T13:42:21;5.60;;;2.63;;
28335;SDS011;15592;53.656;7.276;2022-09-09T13:44:51;5.97;;;2.53;;
28335;SDS011;15592;53.656;7.276;2022-09-09T13:47:18;4.65;;;2.70;;
28335;SDS011;15592;53.656;7.276;2022-09-09T13:49:45;4.00;;;2.60;;
28335;SDS011;15592;53.656;7.276;2022-09-09T13:54:41;3.55;;;2.05;;
28335;SDS011;15592;53.656;7.276;2022-09-09T13:57:17;5.10;;;2.38;;
28335;SDS011;15592;53.656;7.276;2022-09-09T13:59:45;6.13;;;2.42;;
28335;SDS011;15592;53.656;7.276;2022-09-09T14:02:11;4.03;;;2.22;;
28335;SDS011;15592;53.656;7.276;2022-09-09T14:04:38;7.03;;;2.85;;
28335;SDS011;15592;53.656;7.276;2022-09-09T14:07:07;6.35;;;2.60;;
28335;SDS011;15592;53.656;7.276;2022-09-09T14:09:37;6.43;;;2.25;;
28335;SDS011;15592;53.656;7.276;2022-09-09T14:12:03;5.05;;;2.28;;
28335;SDS011;15592;53.656;7.276;2022-09-09T14:14:29;5.68;;;2.38;;
28335;SDS011;15592;53.656;7.276;2022-09-09T14:16:55;6.18;;;2.42;;
28335;SDS011;15592;53.656;7.276;2022-09-09T14:19:20;5.20;;;1.92;;
28335;SDS011;15592;53.656;7.276;2022-09-09T14:21:46;5.40;;;2.72;;
28335;SDS011;15592;53.656;7.276;2022-09-09T14:24:12;5.38;;;2.08;;
28335;SDS011;15592;53.656;7.276;2022-09-09T14:26:37;5.35;;;2.35;;
28335;SDS011;15592;53.656;7.276;2022-09-09T14:29:03;4.57;;;2.10;;
28335;SDS011;15592;53.656;7.276;2022-09-09T14:31:28;4.38;;;2.15;;
28335;SDS011;15592;53.656;7.276;2022-09-09T14:33:54;5.05;;;2.20;;
28335;SDS011;15592;53.656;7.276;2022-09-09T14:36:20;4.55;;;2.10;;
28335;SDS011;15592;53.656;7.276;2022-09-09T14:38:46;4.00;;;2.10;;
28335;SDS011;15592;53.656;7.276;2022-09-09T14:41:13;4.63;;;1.98;;
28335;SDS011;15592;53.656;7.276;2022-09-09T14:43:44;4.30;;;2.47;;
28335;SDS011;15592;53.656;7.276;2022-09-09T14:46:11;4.68;;;2.03;;
28335;SDS011;15592;53.656;7.276;2022-09-09T14:48:38;2.63;;;1.80;;
28335;SDS011;15592;53.656;7.276;2022-09-09T14:51:06;4.95;;;2.17;;
28335;SDS011;15592;53.656;7.276;2022-09-09T14:53:42;2.88;;;2.00;;
28335;SDS011;15592;53.656;7.276;2022-09-09T14:56:13;4.95;;;2.25;;
28335;SDS011;15592;53.656;7.276;2022-09-09T14:58:43;2.33;;;2.13;;
28335;SDS011;15592;53.656;7.276;2022-09-09T15:01:10;3.65;;;2.90;;
28335;SDS011;15592;53.656;7.276;2022-09-09T15:03:38;3.85;;;2.80;;
28335;SDS011;15592;53.656;7.276;2022-09-09T15:06:08;3.63;;;3.17;;
28335;SDS011;15592;53.656;7.276;2022-09-09T15:08:39;3.75;;;2.67;;
28335;SDS011;15592;53.656;7.276;2022-09-09T15:11:06;3.17;;;2.50;;
28335;SDS011;15592;53.656;7.276;2022-09-09T15:13:33;3.08;;;2.75;;
28335;SDS011;15592;53.656;7.276;2022-09-09T15:16:06;3.40;;;2.50;;
28335;SDS011;15592;53.656;7.276;2022-09-09T15:18:33;3.30;;;3.00;;
28335;SDS011;15592;53.656;7.276;2022-09-09T15:21:01;3.55;;;3.20;;
28335;SDS011;15592;53.656;7.276;2022-09-09T15:23:33;3.60;;;3.30;;
28335;SDS011;15592;53.656;7.276;2022-09-09T15:25:59;4.47;;;3.50;;
28335;SDS011;15592;53.656;7.276;2022-09-09T15:28:25;3.47;;;3.17;;
28335;SDS011;15592;53.656;7.276;2022-09-09T15:30:51;4.03;;;3.35;;
28335;SDS011;15592;53.656;7.276;2022-09-09T15:33:18;6.35;;;4.13;;
28335;SDS011;15592;53.656;7.276;2022-09-09T15:35:44;6.40;;;4.53;;
28335;SDS011;15592;53.656;7.276;2022-09-09T15:38:10;17.98;;;5.90;;
28335;SDS011;15592;53.656;7.276;2022-09-09T15:40:38;26.88;;;7.53;;
28335;SDS011;15592;53.656;7.276;2022-09-09T15:43:04;19.40;;;8.15;;
28335;SDS011;15592;53.656;7.276;2022-09-09T15:45:31;20.10;;;7.43;;
28335;SDS011;15592;53.656;7.276;2022-09-09T15:47:58;12.57;;;5.95;;
28335;SDS011;15592;53.656;7.276;2022-09-09T15:50:25;9.20;;;4.97;;
28335;SDS011;15592;53.656;7.276;2022-09-09T15:52:51;6.95;;;4.30;;
28335;SDS011;15592;53.656;7.276;2022-09-09T15:55:18;4.85;;;4.22;;
28335;SDS011;15592;53.656;7.276;2022-09-09T15:57:45;6.03;;;4.47;;
28335;SDS011;15592;53.656;7.276;2022-09-09T16:00:11;6.22;;;4.80;;
28335;SDS011;15592;53.656;7.276;2022-09-09T16:02:38;5.60;;;4.80;;
28335;SDS011;15592;53.656;7.276;2022-09-09T16:05:04;7.20;;;5.00;;
28335;SDS011;15592;53.656;7.276;2022-09-09T16:07:30;6.40;;;5.65;;
28335;SDS011;15592;53.656;7.276;2022-09-09T16:09:55;6.28;;;5.65;;
28335;SDS011;15592;53.656;7.276;2022-09-09T16:12:21;6.50;;;5.85;;
28335;SDS011;15592;53.656;7.276;2022-09-09T16:14:47;6.90;;;6.30;;
28335;SDS011;15592;53.656;7.276;2022-09-09T16:17:12;6.40;;;5.80;;
28335;SDS011;15592;53.656;7.276;2022-09-09T16:19:39;6.50;;;5.88;;
28335;SDS011;15592;53.656;7.276;2022-09-09T16:22:05;7.95;;;6.47;;
28335;SDS011;15592;53.656;7.276;2022-09-09T16:24:31;6.95;;;6.35;;
28335;SDS011;15592;53.656;7.276;2022-09-09T16:26:58;6.80;;;6.20;;
28335;SDS011;15592;53.656;7.276;2022-09-09T16:29:24;7.53;;;6.80;;
28335;SDS011;15592;53.656;7.276;2022-09-09T16:31:52;6.72;;;6.13;;
28335;SDS011;15592;53.656;7.276;2022-09-09T16:34:18;7.57;;;6.93;;
28335;SDS011;15592;53.656;7.276;2022-09-09T16:36:45;7.85;;;7.07;;
28335;SDS011;15592;53.656;7.276;2022-09-09T16:39:13;8.60;;;7.65;;
28335;SDS011;15592;53.656;7.276;2022-09-09T16:41:41;8.43;;;7.63;;
28335;SDS011;15592;53.656;7.276;2022-09-09T16:44:09;8.68;;;7.90;;
28335;SDS011;15592;53.656;7.276;2022-09-09T16:46:37;8.43;;;7.63;;
28335;SDS011;15592;53.656;7.276;2022-09-09T16:49:06;8.43;;;7.47;;
28335;SDS011;15592;53.656;7.276;2022-09-09T16:51:37;7.80;;;7.10;;
28335;SDS011;15592;53.656;7.276;2022-09-09T16:54:08;7.05;;;6.45;;
28335;SDS011;15592;53.656;7.276;2022-09-09T16:56:35;7.57;;;6.97;;
28335;SDS011;15592;53.656;7.276;2022-09-09T16:59:12;7.55;;;6.75;;
28335;SDS011;15592;53.656;7.276;2022-09-09T17:01:40;7.03;;;6.32;;
28335;SDS011;15592;53.656;7.276;2022-09-09T17:04:09;7.00;;;6.30;;
28335;SDS011;15592;53.656;7.276;2022-09-09T17:06:38;6.70;;;6.13;;